Latest Weather Observations for Gayndah

IDQ60801

Issued at 5:22 pm EST Friday 14 December 2018 (issued every 10 minutes, with the page automatically refreshed every 10 minutes)

About weather observations | Map of weather stations | Latest weather observations for QLD | Other Formats
Station Details ID: 039066 Name: GAYNDAH AIRPORT Lat: -25.62 Lon: 151.62 Height: 110.9 m
Data from the previous 72 hours. | See also: Recent months at Gayndah
Date/Time
EST
Temp
°C
App
Temp
°C
Dew
Point
°C
Rel
Hum
%
Delta-T
°C
Wind Press
QNH
hPa
Press
MSL
hPa
Rain since
9am
mm
Dir  Spd
km/h
Gust
km/h
Spd
kts
Gust
kts
14/05:00pm 29.8 28.6 21.5 61 5.6 NE 30 37 16 20 1001.9 1001.3 0.2
14/04:30pm 31.1 30.5 21.9 58 6.3 NE 28 39 15 21 1002.0 1001.4 0.2
14/04:00pm 31.5 31.1 21.7 56 6.7 NE 26 35 14 19 1001.5 1000.9 0.2
14/03:30pm 31.5 31.8 22.2 57 6.3 NE 24 33 13 18 1001.3 1000.7 0.2
14/03:00pm 30.9 30.3 21.9 58 6.1 ENE 28 37 15 20 1001.6 1001.0 0.2
14/02:30pm 31.4 31.8 20.7 53 7.2 ENE 19 26 10 14 1001.9 1001.3 0.2
14/02:00pm 31.5 32.0 20.8 53 7.2 NE 19 28 10 15 1002.2 1001.6 0.2
14/01:30pm 32.1 33.1 21.0 52 7.5 NNE 17 22 9 12 1002.6 1002.0 0.2
14/01:00pm 31.9 34.2 22.0 55 6.8 NE 13 20 7 11 1002.9 1002.3 0.2
14/12:30pm 32.0 33.9 22.1 55 6.8 NE 15 20 8 11 1003.3 1002.7 0.2
14/12:00pm 31.1 33.0 22.1 58 6.1 NNE 15 20 8 11 1003.7 1003.1 0.2
14/11:30am 29.8 32.8 22.0 63 5.3 NE 9 17 5 9 1004.0 1003.4 0.0
14/11:00am 28.3 32.0 22.3 70 4.1 NNW 6 9 3 5 1004.5 1003.9 0.0
14/10:30am 28.6 30.8 21.9 67 4.5 NE 13 19 7 10 1004.9 1004.2 0.0
14/10:00am 28.6 31.2 21.9 67 4.5 NE 11 17 6 9 1005.3 1004.6 0.0
14/09:30am 27.8 30.3 21.8 70 4.0 NNE 11 17 6 9 1005.4 1004.7 0.0
14/09:00am 27.4 30.0 21.9 72 3.7 NNE 11 17 6 9 1005.6 1004.9 0.4
14/08:30am 26.8 29.9 22.2 76 3.1 NE 9 13 5 7 1005.9 1005.2 0.4
14/08:00am 26.0 29.5 22.1 79 2.6 NE 7 11 4 6 1006.0 1005.3 0.4
14/07:30am 25.3 28.1 21.6 80 2.5 NE 9 15 5 8 1005.9 1005.2 0.4
14/07:00am 25.1 28.5 22.0 83 2.1 NE 7 9 4 5 1005.9 1005.2 0.4
14/06:30am 24.8 28.1 21.9 84 1.9 ENE 7 9 4 5 1005.6 1004.9 0.4
14/06:00am 24.3 28.1 21.6 85 1.8 E 4 6 2 3 1005.7 1005.0 0.4
14/05:30am 23.9 27.7 21.6 87 1.5 E 4 6 2 3 1005.7 1005.0 0.4
14/05:00am 23.7 28.0 21.2 86 1.7 CALM 0 2 0 1 1005.8 1005.1 0.4
14/04:30am 23.8 27.7 21.1 85 1.8 E 2 4 1 2 1005.6 1004.9 0.4
14/04:00am 23.9 27.3 21.0 84 1.9 E 4 6 2 3 1005.4 1004.7 0.4
14/03:30am 23.8 26.6 20.9 84 1.9 ESE 7 9 4 5 1005.0 1004.3 0.4
14/03:00am 23.8 26.8 20.9 84 1.9 E 6 9 3 5 1005.0 1004.3 0.4
14/02:30am 23.7 26.5 20.8 84 1.9 E 7 9 4 5 1004.9 1004.2 0.4
14/02:00am 23.6 26.3 20.7 84 1.9 E 7 9 4 5 1004.7 1004.1 0.4
14/01:30am 23.4 26.6 20.5 84 1.9 ENE 4 6 2 3 1005.1 1004.4 0.4
14/01:00am 23.4 26.9 20.3 83 2.0 SE 2 4 1 2 1005.6 1004.9 0.4
14/12:30am 23.3 25.8 20.2 83 2.0 ENE 7 9 4 5 1005.6 1004.9 0.4
14/12:00am 23.4 26.8 20.2 82 2.1 NE 2 6 1 3 1006.0 1005.3 0.4
 
Date/Time
EST
Temp
°C
App
Temp
°C
Dew
Point
°C
Rel
Hum
%
Delta-T
°C
Wind Press
QNH
hPa
Press
MSL
hPa
Rain since
9am
mm
Dir  Spd
km/h
Gust
km/h
Spd
kts
Gust
kts
13/11:30pm 23.2 25.8 20.0 82 2.1 NE 6 9 3 5 1006.3 1005.6 0.4
13/11:00pm 23.3 25.4 20.1 82 2.1 NE 9 15 5 8 1006.3 1005.6 0.4
13/10:30pm 23.1 24.7 19.9 82 2.1 ENE 11 15 6 8 1006.3 1005.6 0.4
13/10:00pm 23.5 25.5 20.0 81 2.3 NE 9 13 5 7 1006.5 1005.8 0.4
13/09:30pm 23.4 25.0 20.0 81 2.2 NE 11 15 6 8 1006.6 1005.9 0.4
13/09:00pm 23.5 25.0 19.8 80 2.4 ENE 11 13 6 7 1006.4 1005.7 0.4
13/08:30pm 23.4 24.4 19.5 79 2.5 ENE 13 17 7 9 1006.2 1005.5 0.4
13/08:00pm 23.5 24.9 19.6 79 2.5 ENE 11 15 6 8 1006.6 1005.9 0.4
13/07:30pm 23.9 25.0 19.6 77 2.8 ENE 13 17 7 9 1006.7 1006.0 0.4
13/07:00pm 24.6 24.4 19.4 73 3.4 NE 19 26 10 14 1006.7 1006.0 0.4
13/06:30pm 25.7 26.4 18.9 66 4.4 NE 13 20 7 11 1006.5 1005.8 0.4
13/06:00pm 27.4 26.6 18.1 57 5.9 NNE 19 28 10 15 1005.7 1005.0 0.0
13/05:30pm 27.8 26.4 17.9 54 6.3 NNE 22 37 12 20 1004.4 1003.8 0.0
13/05:00pm 28.8 28.4 18.0 52 6.9 NNE 17 24 9 13 1004.3 1003.7 0.0
13/04:30pm 29.8 28.6 17.6 48 7.8 NE 20 28 11 15 1003.3 1002.7 0.0
13/04:00pm 30.9 29.5 16.5 42 9.1 NE 19 24 10 13 1003.3 1002.7 0.0
13/03:30pm 30.9 30.1 16.1 41 9.3 NE 15 20 8 11 1004.4 1003.8 0.0
13/03:00pm 30.9 30.1 16.1 41 9.3 NE 15 19 8 10 1005.0 1004.3 0.0
13/02:30pm 29.8 31.0 15.9 43 8.6 SSE 4 7 2 4 1006.0 1005.3 0.0
13/02:00pm 30.4 30.8 16.4 43 8.8 NE 9 15 5 8 1006.1 1005.4 0.0
13/01:30pm 30.3 30.2 16.0 42 8.9 NE 11 17 6 9 1006.6 1005.9 0.0
13/01:00pm 29.8 29.7 15.9 43 8.7 NE 11 20 6 11 1006.9 1006.2 0.0
13/12:30pm 29.7 29.3 16.1 43 8.5 NNE 13 20 7 11 1007.4 1006.7 0.0
13/12:00pm 29.0 28.9 15.9 45 8.1 NNE 11 26 6 14 1008.3 1007.7 0.0
13/11:30am 28.7 28.2 15.9 45 7.9 NNE 13 20 7 11 1008.9 1008.3 0.0
13/11:00am 28.4 28.2 16.7 49 7.3 NE 13 20 7 11 1009.4 1008.8 0.0
13/10:30am 28.5 28.7 16.7 48 7.4 NE 11 20 6 11 1010.0 1009.4 0.0
13/10:00am 27.2 27.9 16.2 51 6.8 NNE 7 15 4 8 1010.2 1009.6 0.0
13/09:30am 26.9 28.3 17.4 56 6.0 ENE 6 13 3 7 1010.4 1009.8 0.0
13/09:00am 25.3 26.8 17.7 62 4.8 NNW 6 11 3 6 1010.9 1010.3 0.0
13/08:30am 25.1 25.4 17.8 64 4.6 NNE 13 17 7 9 1010.9 1010.3 0.0
13/08:00am 24.2 24.9 17.9 68 4.0 NNE 11 19 6 10 1010.6 1010.0 0.0
13/07:30am 24.4 25.2 18.1 68 4.0 NE 11 19 6 10 1010.5 1009.9 0.0
13/07:00am 23.1 23.8 18.0 73 3.2 NNE 11 17 6 9 1010.3 1009.7 0.0
13/06:30am 22.3 24.5 18.3 78 2.5 E 4 6 2 3 1010.3 1009.7 0.0
13/06:00am 19.7 22.4 17.7 88 1.2 CALM 0 0 0 0 1010.0 1009.4 0.0
13/05:30am 18.3 20.7 17.0 92 0.8 CALM 0 0 0 0 1009.5 1008.9 0.0
13/05:00am 18.0 20.2 16.5 91 0.9 CALM 0 0 0 0 1009.3 1008.7 0.0
13/04:30am 18.8 21.2 17.1 90 1.0 CALM 0 0 0 0 1009.5 1008.9 0.0
13/04:00am 18.6 20.8 16.6 88 1.2 CALM 0 0 0 0 1009.6 1009.0 0.0
13/03:30am 18.9 21.2 16.7 87 1.3 CALM 0 0 0 0 1009.8 1009.2 0.0
13/03:00am 19.4 21.1 17.2 87 1.3 SE 4 4 2 2 1010.0 1009.4 0.0
13/02:30am 19.3 21.7 17.1 87 1.3 CALM 0 0 0 0 1010.3 1009.7 0.0
13/02:00am 19.7 21.8 17.1 85 1.6 SE 2 2 1 1 1010.5 1009.9 0.0
13/01:30am 20.2 22.7 17.2 83 1.8 CALM 0 0 0 0 1010.7 1010.1 0.0
13/01:00am 20.3 22.7 16.9 81 2.1 CALM 0 0 0 0 1011.2 1010.6 0.0
13/12:30am 20.5 22.9 16.9 80 2.2 CALM 0 0 0 0 1011.6 1011.0 0.0
13/12:00am 21.2 22.9 17.2 78 2.5 NNE 4 6 2 3 1012.2 1011.6 0.0
 
Date/Time
EST
Temp
°C
App
Temp
°C
Dew
Point
°C
Rel
Hum
%
Delta-T
°C
Wind Press
QNH
hPa
Press
MSL
hPa
Rain since
9am
mm
Dir  Spd
km/h
Gust
km/h
Spd
kts
Gust
kts
12/11:30pm 21.8 22.9 17.2 75 2.8 NE 7 13 4 7 1012.3 1011.7 0.0
12/11:00pm 22.2 22.5 17.1 73 3.1 NE 11 15 6 8 1012.5 1011.9 0.0
12/10:30pm 22.4 22.8 17.3 73 3.2 NE 11 15 6 8 1012.6 1012.0 0.0
12/10:00pm 23.0 22.6 17.2 70 3.6 NE 15 19 8 10 1012.8 1012.2 0.0
12/09:30pm 23.2 23.0 17.7 71 3.4 NE 15 20 8 11 1012.4 1011.8 0.0
12/09:00pm 23.7 22.7 17.9 70 3.6 NE 20 28 11 15 1011.8 1011.2 0.0
12/08:30pm 24.4 22.5 17.6 66 4.3 NE 24 35 13 19 1011.8 1011.2 0.0
12/08:00pm 24.9 23.3 17.4 63 4.7 NE 22 33 12 18 1011.5 1010.9 0.0
12/07:30pm 25.8 23.9 17.7 61 5.1 NE 24 33 13 18 1011.0 1010.4 0.0
12/07:00pm 26.6 24.9 17.1 56 6.0 NE 22 32 12 17 1010.6 1010.0 0.0
12/06:30pm 27.8 25.6 17.0 51 6.8 NE 24 35 13 19 1010.2 1009.6 0.0
12/06:00pm 29.9 27.7 14.8 39 9.3 NE 20 28 11 15 1009.5 1008.9 0.0
12/05:30pm 31.0 29.1 14.2 36 10.2 NE 17 22 9 12 1009.2 1008.6 0.0
12/05:00pm 31.4 30.0 14.5 35 10.4 NE 15 22 8 12 1009.0 1008.4 0.0
12/04:30pm 31.5 29.6 14.2 35 10.6 NE 17 26 9 14 1008.7 1008.1 0.0
12/04:00pm 31.5 29.6 14.2 35 10.6 NE 17 26 9 14 1008.6 1008.0 0.0
12/03:30pm 31.8 29.6 14.4 34 10.7 NE 19 24 10 13 1008.9 1008.3 0.0
12/03:00pm 31.8 30.4 14.4 34 10.7 ENE 15 24 8 13 1009.2 1008.6 0.0
12/02:30pm 31.6 31.2 15.1 36 10.2 NE 11 24 6 13 1009.6 1009.0 0.0
12/02:00pm 30.9 30.8 14.9 37 9.9 NE 9 17 5 9 1010.2 1009.6 0.0
12/01:30pm 30.9 31.1 15.7 39 9.5 ENE 9 22 5 12 1010.7 1010.1 0.0
12/01:00pm 29.9 28.8 14.4 38 9.4 ENE 13 24 7 13 1011.2 1010.6 0.0
12/12:30pm 29.3 28.9 15.1 42 8.7 NNE 11 20 6 11 1011.8 1011.2 0.0
12/12:00pm 29.2 28.5 15.3 42 8.6 NE 13 24 7 13 1012.1 1011.5 0.0
12/11:30am 29.1 28.3 16.0 45 8.1 NE 15 28 8 15 1012.3 1011.7 0.0
12/11:00am 27.7 28.7 16.3 49 7.1 NNE 6 13 3 7 1013.0 1012.4 0.0
12/10:30am 27.0 26.7 15.4 49 7.1 ENE 11 17 6 9 1013.4 1012.8 0.0
12/10:00am 26.4 26.3 16.1 53 6.3 ENE 11 20 6 11 1013.7 1013.1 0.0
12/09:30am 26.0 26.7 17.1 58 5.6 NE 9 17 5 9 1014.1 1013.5 0.0
12/09:00am 24.8 24.9 16.5 60 5.1 NNE 11 17 6 9 1014.4 1013.7 0.0
12/08:30am 24.4 24.3 16.9 63 4.6 NE 13 19 7 10 1014.1 1013.5 0.0
12/08:00am 23.9 25.5 17.9 69 3.8 NE 6 13 3 7 1014.6 1013.9 0.0
12/07:30am 22.6 24.0 17.7 74 3.1 NNE 7 13 4 7 1014.6 1013.9 0.0
12/07:00am 22.0 24.1 18.0 78 2.5 NNE 4 7 2 4 1014.6 1013.9 0.0
12/06:30am 22.1 24.9 17.9 77 2.6 CALM 0 2 0 1 1014.6 1013.9 0.0
12/06:00am 20.6 23.7 18.7 89 1.2 CALM 0 0 0 0 1014.1 1013.5 0.0
12/05:30am 17.8 20.2 17.0 95 0.5 CALM 0 0 0 0 1013.9 1013.3 0.0
12/05:00am 17.3 19.0 16.3 94 0.6 SSE 2 6 1 3 1013.6 1013.0 0.0
12/04:30am 17.6 19.4 16.5 93 0.7 S 2 4 1 2 1013.2 1012.6 0.0
12/04:00am 18.3 20.7 17.0 92 0.8 CALM 0 0 0 0 1013.1 1012.5 0.0
12/03:30am 18.5 20.8 16.8 90 1.0 CALM 0 0 0 0 1013.0 1012.4 0.0
12/03:00am 18.7 21.0 16.7 88 1.2 CALM 0 0 0 0 1013.4 1012.8 0.0
12/02:30am 19.4 21.9 17.2 87 1.3 CALM 0 0 0 0 1013.4 1012.8 0.0
12/02:00am 19.7 20.9 16.9 84 1.7 E 6 6 3 3 1013.5 1012.9 0.0
12/01:30am 20.4 22.6 17.4 83 1.8 ESE 2 4 1 2 1014.1 1013.5 0.0
12/01:00am 20.8 22.9 18.0 84 1.7 ESE 4 4 2 2 1014.7 1014.0 0.0
12/12:30am 20.4 22.2 17.4 83 1.8 ESE 4 4 2 2 1015.0 1014.3 0.0
12/12:00am 20.9 22.4 17.5 81 2.1 ENE 6 9 3 5 1015.2 1014.5 0.0
 
Date/Time
EST
Temp
°C
App
Temp
°C
Dew
Point
°C
Rel
Hum
%
Delta-T
°C
Wind Press
QNH
hPa
Press
MSL
hPa
Rain since
9am
mm
Dir  Spd
km/h
Gust
km/h
Spd
kts
Gust
kts
11/11:30pm 21.4 22.6 17.4 78 2.5 NE 7 9 4 5 1015.3 1014.6 0.0
11/11:00pm 22.0 22.2 17.6 76 2.7 ENE 13 17 7 9 1015.5 1014.8 0.0
11/10:30pm 22.5 22.0 17.8 75 2.9 ENE 17 22 9 12 1015.5 1014.8 0.0
11/10:00pm 22.9 22.3 17.6 72 3.3 ENE 17 24 9 13 1015.9 1015.2 0.0
11/09:30pm 23.5 21.8 17.3 68 3.9 ENE 22 30 12 16 1015.7 1015.0 0.0
11/09:00pm 24.4 23.2 17.4 65 4.4 E 20 28 11 15 1015.5 1014.8 0.0
11/08:30pm 25.0 23.3 17.2 62 4.9 ENE 22 28 12 15 1014.8 1014.1 0.0
11/08:00pm 25.4 22.3 16.5 58 5.5 ENE 28 37 15 20 1014.0 1013.4 0.0
11/07:30pm 26.1 24.9 17.5 59 5.4 ENE 20 28 11 15 1013.8 1013.2 0.0
11/07:00pm 26.6 25.7 17.7 58 5.6 ENE 19 24 10 13 1013.2 1012.6 0.0
11/06:30pm 27.5 26.8 17.4 54 6.4 ENE 17 24 9 13 1012.8 1012.2 0.0
11/06:00pm 28.7 27.3 16.9 48 7.4 ENE 20 28 11 15 1012.2 1011.6 0.0
11/05:30pm 30.4 28.9 16.4 43 8.8 ENE 19 26 10 14 1011.7 1011.1 0.0

Other Formats:

Comma delimited format used in spreadsheet applications
http://www.bom.gov.au/fwo/IDQ60801/IDQ60801.95543.axf

JavaScript Object Notation format (JSON) in row-major order
http://www.bom.gov.au/fwo/IDQ60801/IDQ60801.95543.json